sensor_id;sensor_type;location;lat;lon;timestamp;pressure;altitude;pressure_sealevel;temperature;humidity
8047;BME280;67150;42.516;23.358;2023-09-18T00:00:42;89048.13;;;19.09;62.46
8047;BME280;67150;42.516;23.358;2023-09-18T00:03:10;89043.84;;;19.10;62.38
8047;BME280;67150;42.516;23.358;2023-09-18T00:05:38;89037.78;;;19.11;61.95
8047;BME280;67150;42.516;23.358;2023-09-18T00:08:06;89034.72;;;19.07;62.43
8047;BME280;67150;42.516;23.358;2023-09-18T00:10:33;89030.41;;;19.08;62.46
8047;BME280;67150;42.516;23.358;2023-09-18T00:13:01;89040.63;;;19.08;62.46
8047;BME280;67150;42.516;23.358;2023-09-18T00:15:28;89031.19;;;19.08;62.39
8047;BME280;67150;42.516;23.358;2023-09-18T00:17:55;89026.09;;;19.08;62.41
8047;BME280;67150;42.516;23.358;2023-09-18T00:20:23;89025.31;;;19.08;62.39
8047;BME280;67150;42.516;23.358;2023-09-18T00:22:54;89025.31;;;19.08;62.42
8047;BME280;67150;42.516;23.358;2023-09-18T00:25:21;89031.19;;;19.08;62.41
8047;BME280;67150;42.516;23.358;2023-09-18T00:27:49;89021.78;;;19.09;62.51
8047;BME280;67150;42.516;23.358;2023-09-18T00:30:17;89030.41;;;19.08;62.59
8047;BME280;67150;42.516;23.358;2023-09-18T00:32:44;89019.69;;;19.04;62.60
8047;BME280;67150;42.516;23.358;2023-09-18T00:35:12;89023.19;;;19.03;62.64
8047;BME280;67150;42.516;23.358;2023-09-18T00:37:40;89026.84;;;19.00;62.56
8047;BME280;67150;42.516;23.358;2023-09-18T00:40:11;89023.34;;;19.01;62.75
8047;BME280;67150;42.516;23.358;2023-09-18T00:42:39;89034.19;;;19.03;62.52
8047;BME280;67150;42.516;23.358;2023-09-18T00:45:07;89026.53;;;19.03;62.61
8047;BME280;67150;42.516;23.358;2023-09-18T00:47:35;89024.28;;;19.00;62.61
8047;BME280;67150;42.516;23.358;2023-09-18T00:50:04;89019.81;;;19.02;62.69
8047;BME280;67150;42.516;23.358;2023-09-18T00:52:34;89025.59;;;19.05;62.52
8047;BME280;67150;42.516;23.358;2023-09-18T00:55:02;89020.78;;;19.01;62.72
8047;BME280;67150;42.516;23.358;2023-09-18T00:57:31;89024.16;;;19.02;62.57
8047;BME280;67150;42.516;23.358;2023-09-18T00:59:58;89024.94;;;19.02;62.68
8047;BME280;67150;42.516;23.358;2023-09-18T01:02:25;89030.19;;;19.01;62.77
8047;BME280;67150;42.516;23.358;2023-09-18T01:04:53;89028.56;;;19.00;62.77
8047;BME280;67150;42.516;23.358;2023-09-18T01:07:20;89026.69;;;19.02;62.54
8047;BME280;67150;42.516;23.358;2023-09-18T01:09:48;89029.38;;;19.00;62.74
8047;BME280;67150;42.516;23.358;2023-09-18T01:12:18;89034.84;;;19.06;62.47
8047;BME280;67150;42.516;23.358;2023-09-18T01:14:58;89034.19;;;19.03;62.73
8047;BME280;67150;42.516;23.358;2023-09-18T01:17:29;89028.28;;;19.03;62.60
8047;BME280;67150;42.516;23.358;2023-09-18T01:19:57;89030.84;;;19.03;62.72
8047;BME280;67150;42.516;23.358;2023-09-18T01:24:53;89024.94;;;19.02;62.56
8047;BME280;67150;42.516;23.358;2023-09-18T01:27:21;89022.66;;;18.99;62.57
8047;BME280;67150;42.516;23.358;2023-09-18T01:29:48;89024.44;;;18.99;62.59
8047;BME280;67150;42.516;23.358;2023-09-18T01:32:16;89026.31;;;18.97;62.67
8047;BME280;67150;42.516;23.358;2023-09-18T01:34:47;89020.09;;;18.99;62.71
8047;BME280;67150;42.516;23.358;2023-09-18T01:37:17;89025.38;;;18.98;62.70
8047;BME280;67150;42.516;23.358;2023-09-18T01:39:48;89025.50;;;18.96;62.65
8047;BME280;67150;42.516;23.358;2023-09-18T01:42:18;89025.50;;;18.96;62.88
8047;BME280;67150;42.516;23.358;2023-09-18T01:44:46;89028.06;;;18.96;62.61
8047;BME280;67150;42.516;23.358;2023-09-18T01:47:16;89027.41;;;18.94;62.86
8047;BME280;67150;42.516;23.358;2023-09-18T01:49:44;89029.16;;;18.94;62.78
8047;BME280;67150;42.516;23.358;2023-09-18T01:52:13;89032.38;;;18.96;62.70
8047;BME280;67150;42.516;23.358;2023-09-18T01:54:40;89030.59;;;18.96;62.50
8047;BME280;67150;42.516;23.358;2023-09-18T01:57:08;89027.13;;;18.97;62.53
8047;BME280;67150;42.516;23.358;2023-09-18T01:59:37;89033.97;;;18.97;62.80
8047;BME280;67150;42.516;23.358;2023-09-18T02:02:05;89031.56;;;18.95;62.78
8047;BME280;67150;42.516;23.358;2023-09-18T02:04:35;89034.25;;;18.94;62.90
8047;BME280;67150;42.516;23.358;2023-09-18T02:07:05;89026.09;;;18.90;62.70
8047;BME280;67150;42.516;23.358;2023-09-18T02:09:32;89038.56;;;18.93;62.78
8047;BME280;67150;42.516;23.358;2023-09-18T02:12:00;89029.03;;;18.95;62.59
8047;BME280;67150;42.516;23.358;2023-09-18T02:14:27;89036.00;;;18.93;62.85
8047;BME280;67150;42.516;23.358;2023-09-18T02:16:57;89014.22;;;18.81;62.81
8047;BME280;67150;42.516;23.358;2023-09-18T02:19:25;89035.34;;;18.91;62.77
8047;BME280;67150;42.516;23.358;2023-09-18T02:21:56;89035.06;;;18.94;62.69
8047;BME280;67150;42.516;23.358;2023-09-18T02:24:23;89035.34;;;18.91;62.85
8047;BME280;67150;42.516;23.358;2023-09-18T02:26:50;89031.88;;;18.92;62.80
8047;BME280;67150;42.516;23.358;2023-09-18T02:29:18;89027.06;;;18.89;62.74
8047;BME280;67150;42.516;23.358;2023-09-18T02:31:45;89027.06;;;18.89;62.83
8047;BME280;67150;42.516;23.358;2023-09-18T02:34:13;89031.88;;;18.92;62.70
8047;BME280;67150;42.516;23.358;2023-09-18T02:36:41;89031.34;;;18.89;62.83
8047;BME280;67150;42.516;23.358;2023-09-18T02:39:08;89026.25;;;18.89;62.96
8047;BME280;67150;42.516;23.358;2023-09-18T02:41:35;89029.44;;;18.91;62.68
8047;BME280;67150;42.516;23.358;2023-09-18T02:44:03;89027.97;;;18.88;62.77
8047;BME280;67150;42.516;23.358;2023-09-18T02:46:30;89026.41;;;18.87;62.75
8047;BME280;67150;42.516;23.358;2023-09-18T02:48:57;89023.84;;;18.87;62.74
8047;BME280;67150;42.516;23.358;2023-09-18T02:51:26;89022.06;;;18.88;62.62
8047;BME280;67150;42.516;23.358;2023-09-18T02:53:53;89023.97;;;18.86;62.82
8047;BME280;67150;42.516;23.358;2023-09-18T02:56:20;89027.34;;;18.86;62.78
8047;BME280;67150;42.516;23.358;2023-09-18T02:58:48;89031.63;;;18.86;62.75
8047;BME280;67150;42.516;23.358;2023-09-18T03:01:15;89036.28;;;18.90;62.74
8047;BME280;67150;42.516;23.358;2023-09-18T03:03:43;89031.34;;;18.89;62.86
8047;BME280;67150;42.516;23.358;2023-09-18T03:06:10;89037.25;;;18.89;62.80
8047;BME280;67150;42.516;23.358;2023-09-18T03:08:39;89035.13;;;18.85;62.84
8047;BME280;67150;42.516;23.358;2023-09-18T03:11:11;89034.84;;;18.88;62.92
8047;BME280;67150;42.516;23.358;2023-09-18T03:13:43;89042.66;;;18.86;62.85
8047;BME280;67150;42.516;23.358;2023-09-18T03:16:11;89037.69;;;18.85;62.97
8047;BME280;67150;42.516;23.358;2023-09-18T03:18:38;89039.16;;;18.87;62.72
8047;BME280;67150;42.516;23.358;2023-09-18T03:21:05;89033.53;;;18.84;62.75
8047;BME280;67150;42.516;23.358;2023-09-18T03:23:32;89030.81;;;18.85;62.80
8047;BME280;67150;42.516;23.358;2023-09-18T03:26:01;89031.63;;;18.86;62.97
8047;BME280;67150;42.516;23.358;2023-09-18T03:28:28;89028.28;;;18.85;62.77
8047;BME280;67150;42.516;23.358;2023-09-18T03:30:58;89031.63;;;18.86;62.84
8047;BME280;67150;42.516;23.358;2023-09-18T03:33:25;89029.25;;;18.84;62.75
8047;BME280;67150;42.516;23.358;2023-09-18T03:35:52;89028.28;;;18.85;62.79
8047;BME280;67150;42.516;23.358;2023-09-18T03:38:23;89031.78;;;18.84;62.68
8047;BME280;67150;42.516;23.358;2023-09-18T03:40:51;89026.81;;;18.83;62.79
8047;BME280;67150;42.516;23.358;2023-09-18T03:43:20;89034.34;;;18.84;62.79
8047;BME280;67150;42.516;23.358;2023-09-18T03:45:47;89024.91;;;18.85;62.75
8047;BME280;67150;42.516;23.358;2023-09-18T03:48:14;89029.53;;;18.81;62.99
8047;BME280;67150;42.516;23.358;2023-09-18T03:50:41;89027.91;;;18.80;62.88
8047;BME280;67150;42.516;23.358;2023-09-18T03:53:09;89027.75;;;18.82;62.76
8047;BME280;67150;42.516;23.358;2023-09-18T03:55:36;89032.84;;;18.82;62.88
8047;BME280;67150;42.516;23.358;2023-09-18T03:58:04;89028.72;;;18.81;62.87
8047;BME280;67150;42.516;23.358;2023-09-18T04:00:33;89030.19;;;18.83;62.66
8047;BME280;67150;42.516;23.358;2023-09-18T04:03:00;89020.09;;;18.82;62.70
8047;BME280;67150;42.516;23.358;2023-09-18T04:05:28;89024.44;;;18.81;62.72
8047;BME280;67150;42.516;23.358;2023-09-18T04:07:55;89024.44;;;18.81;62.69
8047;BME280;67150;42.516;23.358;2023-09-18T04:10:22;89018.63;;;18.79;62.63
8047;BME280;67150;42.516;23.358;2023-09-18T04:12:50;89020.53;;;18.77;62.83
8047;BME280;67150;42.516;23.358;2023-09-18T04:15:17;89017.06;;;18.78;62.85
8047;BME280;67150;42.516;23.358;2023-09-18T04:17:46;89019.91;;;18.75;62.89
8047;BME280;67150;42.516;23.358;2023-09-18T04:20:14;89016.38;;;18.76;62.93
8047;BME280;67150;42.516;23.358;2023-09-18T04:22:43;89018.94;;;18.76;62.76
8047;BME280;67150;42.516;23.358;2023-09-18T04:25:11;89016.38;;;18.76;62.83
8047;BME280;67150;42.516;23.358;2023-09-18T04:27:39;89018.94;;;18.76;62.68
8047;BME280;67150;42.516;23.358;2023-09-18T04:30:07;89023.09;;;18.77;62.86
8047;BME280;67150;42.516;23.358;2023-09-18T04:32:35;89024.19;;;18.75;62.74
8047;BME280;67150;42.516;23.358;2023-09-18T04:35:05;89027.69;;;18.74;62.73
8047;BME280;67150;42.516;23.358;2023-09-18T04:37:38;89024.31;;;18.73;62.82
8047;BME280;67150;42.516;23.358;2023-09-18T04:40:07;89027.56;;;18.75;62.82
8047;BME280;67150;42.516;23.358;2023-09-18T04:42:37;89014.78;;;18.75;62.72
8047;BME280;67150;42.516;23.358;2023-09-18T04:45:06;89019.91;;;18.75;62.72
8047;BME280;67150;42.516;23.358;2023-09-18T04:47:34;89019.09;;;18.75;62.80
8047;BME280;67150;42.516;23.358;2023-09-18T04:50:01;89024.31;;;18.73;62.69
8047;BME280;67150;42.516;23.358;2023-09-18T04:52:34;89020.47;;;18.69;62.87
8047;BME280;67150;42.516;23.358;2023-09-18T04:55:01;89025.28;;;18.72;62.84
8047;BME280;67150;42.516;23.358;2023-09-18T04:57:28;89021.13;;;18.71;62.64
8047;BME280;67150;42.516;23.358;2023-09-18T04:59:56;89019.50;;;18.70;62.84
8047;BME280;67150;42.516;23.358;2023-09-18T05:02:23;89014.41;;;18.70;62.85
8047;BME280;67150;42.516;23.358;2023-09-18T05:04:51;89017.75;;;18.71;62.78
8047;BME280;67150;42.516;23.358;2023-09-18T05:07:18;89008.34;;;18.71;62.70
8047;BME280;67150;42.516;23.358;2023-09-18T05:09:48;89013.47;;;18.71;62.67
8047;BME280;67150;42.516;23.358;2023-09-18T05:12:15;89011.06;;;18.70;62.66
8047;BME280;67150;42.516;23.358;2023-09-18T05:14:42;89005.97;;;18.70;62.80
8047;BME280;67150;42.516;23.358;2023-09-18T05:17:13;89013.75;;;18.68;62.91
8047;BME280;67150;42.516;23.358;2023-09-18T05:19:41;89009.44;;;18.69;62.82
8047;BME280;67150;42.516;23.358;2023-09-18T05:22:08;89015.34;;;18.69;62.79
8047;BME280;67150;42.516;23.358;2023-09-18T05:24:37;89009.44;;;18.69;62.83
8047;BME280;67150;42.516;23.358;2023-09-18T05:27:05;89015.34;;;18.69;62.69
8047;BME280;67150;42.516;23.358;2023-09-18T05:29:33;89017.22;;;18.67;63.00
8047;BME280;67150;42.516;23.358;2023-09-18T05:32:02;89021.41;;;18.68;62.65
8047;BME280;67150;42.516;23.358;2023-09-18T05:34:29;89020.75;;;18.66;62.72
8047;BME280;67150;42.516;23.358;2023-09-18T05:36:57;89014.56;;;18.69;62.87
8047;BME280;67150;42.516;23.358;2023-09-18T05:39:24;89017.22;;;18.67;62.58
8047;BME280;67150;42.516;23.358;2023-09-18T05:41:52;89019.50;;;18.70;62.55
8047;BME280;67150;42.516;23.358;2023-09-18T05:44:21;89020.47;;;18.69;62.57
8047;BME280;67150;42.516;23.358;2023-09-18T05:46:48;89016.44;;;18.67;62.48
8047;BME280;67150;42.516;23.358;2023-09-18T05:49:15;89017.53;;;18.64;62.61
8047;BME280;67150;42.516;23.358;2023-09-18T05:51:42;89018.47;;;18.63;62.73
8047;BME280;67150;42.516;23.358;2023-09-18T05:54:10;89022.63;;;18.64;62.83
8047;BME280;67150;42.516;23.358;2023-09-18T05:56:37;89015.66;;;18.66;62.75
8047;BME280;67150;42.516;23.358;2023-09-18T05:59:04;89020.75;;;18.66;62.87
8047;BME280;67150;42.516;23.358;2023-09-18T06:01:33;89020.59;;;18.68;62.85
8047;BME280;67150;42.516;23.358;2023-09-18T06:04:00;89021.28;;;18.70;62.67
8047;BME280;67150;42.516;23.358;2023-09-18T06:06:29;89018.84;;;18.68;62.62
8047;BME280;67150;42.516;23.358;2023-09-18T06:08:57;89018.19;;;18.66;62.62
8047;BME280;67150;42.516;23.358;2023-09-18T06:11:27;89017.09;;;18.69;62.75
8047;BME280;67150;42.516;23.358;2023-09-18T06:13:54;89018.56;;;18.71;62.51
8047;BME280;67150;42.516;23.358;2023-09-18T06:16:21;89021.28;;;18.70;62.49
8047;BME280;67150;42.516;23.358;2023-09-18T06:18:53;89024.59;;;18.70;62.70
8047;BME280;67150;42.516;23.358;2023-09-18T06:21:21;89021.13;;;18.71;62.52
8047;BME280;67150;42.516;23.358;2023-09-18T06:23:49;89016.94;;;18.70;62.50
8047;BME280;67150;42.516;23.358;2023-09-18T06:26:18;89023.66;;;18.71;62.58
8047;BME280;67150;42.516;23.358;2023-09-18T06:28:45;89020.97;;;18.73;62.62
8047;BME280;67150;42.516;23.358;2023-09-18T06:31:12;89027.69;;;18.74;62.46
8047;BME280;67150;42.516;23.358;2023-09-18T06:33:40;89025.00;;;18.75;62.48
8047;BME280;67150;42.516;23.358;2023-09-18T06:36:09;89030.88;;;18.76;62.42
8047;BME280;67150;42.516;23.358;2023-09-18T06:38:36;89023.09;;;18.77;62.45
8047;BME280;67150;42.516;23.358;2023-09-18T06:41:06;89029.13;;;18.76;62.42
8047;BME280;67150;42.516;23.358;2023-09-18T06:43:34;89023.91;;;18.78;62.46
8047;BME280;67150;42.516;23.358;2023-09-18T06:46:01;89026.28;;;18.79;62.46
8047;BME280;67150;42.516;23.358;2023-09-18T06:48:28;89031.78;;;18.84;62.28
8047;BME280;67150;42.516;23.358;2023-09-18T06:50:58;89020.09;;;18.82;62.31
8047;BME280;67150;42.516;23.358;2023-09-18T06:53:27;89032.72;;;18.83;62.53
8047;BME280;67150;42.516;23.358;2023-09-18T06:55:54;89036.09;;;18.84;62.30
8047;BME280;67150;42.516;23.358;2023-09-18T06:58:22;89031.63;;;18.86;62.38
8047;BME280;67150;42.516;23.358;2023-09-18T07:00:49;89032.44;;;18.86;62.39
8047;BME280;67150;42.516;23.358;2023-09-18T07:03:17;89032.44;;;18.86;62.27
8047;BME280;67150;42.516;23.358;2023-09-18T07:05:44;89032.44;;;18.86;62.25
8047;BME280;67150;42.516;23.358;2023-09-18T07:08:12;89033.09;;;18.88;62.30
8047;BME280;67150;42.516;23.358;2023-09-18T07:10:42;89034.06;;;18.87;62.15
8047;BME280;67150;42.516;23.358;2023-09-18T07:13:09;89038.84;;;18.90;62.11
8047;BME280;67150;42.516;23.358;2023-09-18T07:15:37;89031.88;;;18.92;62.16
8047;BME280;67150;42.516;23.358;2023-09-18T07:18:04;89037.78;;;18.93;62.08
8047;BME280;67150;42.516;23.358;2023-09-18T07:20:31;89032.00;;;18.91;62.14
8047;BME280;67150;42.516;23.358;2023-09-18T07:22:59;89031.88;;;18.92;62.08
8047;BME280;67150;42.516;23.358;2023-09-18T07:25:26;89034.41;;;18.92;62.17
8047;BME280;67150;42.516;23.358;2023-09-18T07:27:55;89035.06;;;18.94;62.11
8047;BME280;67150;42.516;23.358;2023-09-18T07:30:22;89033.44;;;18.93;62.18
8047;BME280;67150;42.516;23.358;2023-09-18T07:32:55;89042.31;;;18.99;62.04
8047;BME280;67150;42.516;23.358;2023-09-18T07:35:23;89049.28;;;18.97;61.91
8047;BME280;67150;42.516;23.358;2023-09-18T07:37:51;89044.06;;;18.98;61.81
8047;BME280;67150;42.516;23.358;2023-09-18T07:40:18;89050.91;;;18.98;61.93
8047;BME280;67150;42.516;23.358;2023-09-18T07:42:45;89051.72;;;18.98;61.90
8047;BME280;67150;42.516;23.358;2023-09-18T07:45:14;89046.63;;;18.98;62.03
8047;BME280;67150;42.516;23.358;2023-09-18T07:47:43;89043.09;;;18.99;61.89
8047;BME280;67150;42.516;23.358;2023-09-18T07:50:10;89042.31;;;18.99;61.77
8047;BME280;67150;42.516;23.358;2023-09-18T07:52:38;89049.97;;;18.99;61.99
8047;BME280;67150;42.516;23.358;2023-09-18T07:55:06;89049.16;;;18.98;61.92
8047;BME280;67150;42.516;23.358;2023-09-18T07:57:34;89052.66;;;18.97;62.08
8047;BME280;67150;42.516;23.358;2023-09-18T08:00:04;89049.44;;;18.95;62.24
8047;BME280;67150;42.516;23.358;2023-09-18T08:02:36;89051.03;;;18.96;62.20
8047;BME280;67150;42.516;23.358;2023-09-18T08:05:04;89047.72;;;18.96;62.29
8047;BME280;67150;42.516;23.358;2023-09-18T08:07:33;89047.72;;;18.96;62.16
8047;BME280;67150;42.516;23.358;2023-09-18T08:10:02;89044.19;;;18.97;62.28
8047;BME280;67150;42.516;23.358;2023-09-18T08:12:32;89046.63;;;18.98;62.21
8047;BME280;67150;42.516;23.358;2023-09-18T08:14:59;89041.50;;;18.98;62.09
8047;BME280;67150;42.516;23.358;2023-09-18T08:17:27;89043.25;;;18.98;62.16
8047;BME280;67150;42.516;23.358;2023-09-18T08:19:56;89046.91;;;18.95;62.09
8047;BME280;67150;42.516;23.358;2023-09-18T08:22:24;89052.00;;;18.95;62.15
8047;BME280;67150;42.516;23.358;2023-09-18T08:24:52;89054.41;;;18.97;62.17
8047;BME280;67150;42.516;23.358;2023-09-18T08:27:19;89051.19;;;18.95;62.26
8047;BME280;67150;42.516;23.358;2023-09-18T08:29:47;89052.94;;;18.94;62.38
8047;BME280;67150;42.516;23.358;2023-09-18T08:32:14;89058.06;;;18.94;62.37
8047;BME280;67150;42.516;23.358;2023-09-18T08:34:41;89053.88;;;18.93;62.41
8047;BME280;67150;42.516;23.358;2023-09-18T08:37:10;89045.56;;;18.91;62.34
8047;BME280;67150;42.516;23.358;2023-09-18T08:39:38;89047.31;;;18.91;62.33
8047;BME280;67150;42.516;23.358;2023-09-18T08:42:07;89050.69;;;18.91;62.35
8047;BME280;67150;42.516;23.358;2023-09-18T08:44:38;89045.56;;;18.91;62.40
8047;BME280;67150;42.516;23.358;2023-09-18T08:47:08;89046.38;;;18.92;62.47
8047;BME280;67150;42.516;23.358;2023-09-18T08:49:38;89040.47;;;18.91;62.59
8047;BME280;67150;42.516;23.358;2023-09-18T08:52:06;89040.19;;;18.94;62.40
8047;BME280;67150;42.516;23.358;2023-09-18T08:54:35;89041.63;;;18.97;62.49
8047;BME280;67150;42.516;23.358;2023-09-18T08:57:03;89044.88;;;18.99;62.29
8047;BME280;67150;42.516;23.358;2023-09-18T08:59:35;89046.16;;;19.03;62.18
8047;BME280;67150;42.516;23.358;2023-09-18T09:02:04;89043.78;;;19.01;62.27
8047;BME280;67150;42.516;23.358;2023-09-18T09:04:31;89045.34;;;19.02;62.11
8047;BME280;67150;42.516;23.358;2023-09-18T09:06:58;89044.72;;;19.00;62.24
8047;BME280;67150;42.516;23.358;2023-09-18T09:09:26;89046.31;;;19.01;62.23
8047;BME280;67150;42.516;23.358;2023-09-18T09:11:55;89044.94;;;19.07;61.98
8047;BME280;67150;42.516;23.358;2023-09-18T09:14:22;89033.16;;;18.96;61.85
8047;BME280;67150;42.516;23.358;2023-09-18T09:16:54;89039.19;;;19.05;62.10
8047;BME280;67150;42.516;23.358;2023-09-18T09:19:29;89043.19;;;19.08;61.92
8047;BME280;67150;42.516;23.358;2023-09-18T09:21:57;89041.72;;;19.05;61.92
8047;BME280;67150;42.516;23.358;2023-09-18T09:24:36;89046.84;;;19.05;61.87
8047;BME280;67150;42.516;23.358;2023-09-18T09:27:05;89043.47;;;19.05;61.96
8047;BME280;67150;42.516;23.358;2023-09-18T09:29:34;89049.25;;;19.07;61.92
8047;BME280;67150;42.516;23.358;2023-09-18T09:32:15;89052.59;;;19.07;61.95
8047;BME280;67150;42.516;23.358;2023-09-18T09:34:46;89042.50;;;19.06;61.79
8047;BME280;67150;42.516;23.358;2023-09-18T09:37:13;89040.63;;;19.08;61.92
8047;BME280;67150;42.516;23.358;2023-09-18T09:39:48;89038.09;;;19.08;62.10
8047;BME280;67150;42.516;23.358;2023-09-18T09:42:18;89040.63;;;19.08;62.04
8047;BME280;67150;42.516;23.358;2023-09-18T09:45:02;89043.47;;;19.05;62.18
8047;BME280;67150;42.516;23.358;2023-09-18T09:47:33;89041.72;;;19.05;61.99
8047;BME280;67150;42.516;23.358;2023-09-18T09:50:06;89048.59;;;19.05;61.85
8047;BME280;67150;42.516;23.358;2023-09-18T09:52:36;89041.56;;;19.07;61.90
8047;BME280;67150;42.516;23.358;2023-09-18T09:55:18;89036.31;;;19.08;62.17
8047;BME280;67150;42.516;23.358;2023-09-18T09:57:49;89041.72;;;19.05;62.15
8047;BME280;67150;42.516;23.358;2023-09-18T10:00:17;89031.19;;;19.08;61.92
8047;BME280;67150;42.516;23.358;2023-09-18T10:03:04;89028.66;;;19.08;62.00
8047;BME280;67150;42.516;23.358;2023-09-18T10:05:33;89028.16;;;19.05;62.50
8047;BME280;67150;42.516;23.358;2023-09-18T10:08:05;89029.31;;;19.10;62.03
8047;BME280;67150;42.516;23.358;2023-09-18T10:10:36;89032.69;;;19.11;62.03
8047;BME280;67150;42.516;23.358;2023-09-18T10:13:10;89033.34;;;19.13;61.70
8047;BME280;67150;42.516;23.358;2023-09-18T10:15:40;89034.28;;;19.12;61.91
8047;BME280;67150;42.516;23.358;2023-09-18T10:18:17;89025.81;;;19.11;61.89
8047;BME280;67150;42.516;23.358;2023-09-18T10:20:46;89028.50;;;19.10;61.92
8047;BME280;67150;42.516;23.358;2023-09-18T10:23:24;89025.81;;;19.11;61.79
8047;BME280;67150;42.516;23.358;2023-09-18T10:25:59;89034.44;;;19.10;61.71
8047;BME280;67150;42.516;23.358;2023-09-18T10:28:30;89032.69;;;19.11;61.82
8047;BME280;67150;42.516;23.358;2023-09-18T10:30:58;89032.69;;;19.11;61.82
8047;BME280;67150;42.516;23.358;2023-09-18T10:33:28;89022.59;;;19.09;62.02
8047;BME280;67150;42.516;23.358;2023-09-18T10:35:56;89018.59;;;19.07;62.04
8047;BME280;67150;42.516;23.358;2023-09-18T10:38:25;89020.19;;;19.08;62.10
8047;BME280;67150;42.516;23.358;2023-09-18T10:40:54;88997.94;;;19.00;61.81
8047;BME280;67150;42.516;23.358;2023-09-18T10:43:22;89013.47;;;19.07;61.94
8047;BME280;67150;42.516;23.358;2023-09-18T10:45:52;89006.75;;;19.06;61.80
8047;BME280;67150;42.516;23.358;2023-09-18T10:48:20;89005.81;;;19.07;61.47
8047;BME280;67150;42.516;23.358;2023-09-18T10:50:48;89003.25;;;19.07;61.63
8047;BME280;67150;42.516;23.358;2023-09-18T10:53:18;88994.97;;;19.05;62.36
8047;BME280;67150;42.516;23.358;2023-09-18T10:55:48;88998.16;;;19.07;62.28
8047;BME280;67150;42.516;23.358;2023-09-18T10:58:23;88996.53;;;19.06;62.24
8047;BME280;67150;42.516;23.358;2023-09-18T11:00:53;88994.50;;;19.09;62.08
8047;BME280;67150;42.516;23.358;2023-09-18T11:03:23;89000.25;;;19.11;61.93
8047;BME280;67150;42.516;23.358;2023-09-18T11:06:04;88988.28;;;19.12;61.99
8047;BME280;67150;42.516;23.358;2023-09-18T11:08:33;88993.41;;;19.12;61.80
8047;BME280;67150;42.516;23.358;2023-09-18T11:11:02;88996.75;;;19.12;61.68
8047;BME280;67150;42.516;23.358;2023-09-18T11:13:37;88991.66;;;19.12;61.86
8047;BME280;67150;42.516;23.358;2023-09-18T11:16:34;88994.06;;;19.14;61.71
8047;BME280;67150;42.516;23.358;2023-09-18T11:19:11;88993.41;;;19.12;61.77
8047;BME280;67150;42.516;23.358;2023-09-18T11:21:39;88982.53;;;19.10;61.93
8047;BME280;67150;42.516;23.358;2023-09-18T11:24:08;88985.38;;;19.07;61.82
8047;BME280;67150;42.516;23.358;2023-09-18T11:26:47;88978.22;;;19.10;62.16
8047;BME280;67150;42.516;23.358;2023-09-18T11:29:17;88981.59;;;19.11;62.19
8047;BME280;67150;42.516;23.358;2023-09-18T11:31:49;88974.88;;;19.10;62.64
8047;BME280;67150;42.516;23.358;2023-09-18T11:34:20;88972.03;;;19.13;62.69
8047;BME280;67150;42.516;23.358;2023-09-18T11:36:49;88972.84;;;19.13;61.98
8047;BME280;67150;42.516;23.358;2023-09-18T11:39:34;88967.44;;;19.16;61.80
8047;BME280;67150;42.516;23.358;2023-09-18T11:42:07;88974.13;;;19.17;61.64
8047;BME280;67150;42.516;23.358;2023-09-18T11:44:36;88969.81;;;19.18;61.66
8047;BME280;67150;42.516;23.358;2023-09-18T11:47:09;88962.63;;;19.13;61.95
8047;BME280;67150;42.516;23.358;2023-09-18T11:49:46;88956.53;;;19.14;62.09
8047;BME280;67150;42.516;23.358;2023-09-18T11:52:16;88958.97;;;19.16;62.32
8047;BME280;67150;42.516;23.358;2023-09-18T11:54:44;88953.22;;;19.14;62.47
8047;BME280;67150;42.516;23.358;2023-09-18T11:57:13;88956.69;;;19.13;62.42
8047;BME280;67150;42.516;23.358;2023-09-18T11:59:41;88948.88;;;19.14;62.46
8047;BME280;67150;42.516;23.358;2023-09-18T12:02:13;88950.34;;;19.17;62.32
8047;BME280;67150;42.516;23.358;2023-09-18T12:04:46;88957.06;;;19.18;62.46
8047;BME280;67150;42.516;23.358;2023-09-18T12:07:14;88949.38;;;19.18;62.41
8047;BME280;67150;42.516;23.358;2023-09-18T12:09:42;88951.94;;;19.18;62.58
8047;BME280;67150;42.516;23.358;2023-09-18T12:12:09;88951.50;;;19.22;62.00
8047;BME280;67150;42.516;23.358;2023-09-18T12:14:40;88954.72;;;19.24;61.92
8047;BME280;67150;42.516;23.358;2023-09-18T12:17:08;88956.63;;;19.22;61.91
8047;BME280;67150;42.516;23.358;2023-09-18T12:19:37;88956.63;;;19.22;61.77
8047;BME280;67150;42.516;23.358;2023-09-18T12:22:04;88958.22;;;19.23;61.68
8047;BME280;67150;42.516;23.358;2023-09-18T12:24:32;88947.19;;;19.23;61.82
8047;BME280;67150;42.516;23.358;2023-09-18T12:26:59;88943.97;;;19.21;61.81
8047;BME280;67150;42.516;23.358;2023-09-18T12:29:27;88943.97;;;19.21;62.22
8047;BME280;67150;42.516;23.358;2023-09-18T12:31:55;88945.31;;;19.25;62.21
8047;BME280;67150;42.516;23.358;2023-09-18T12:34:22;88944.50;;;19.24;62.17
8047;BME280;67150;42.516;23.358;2023-09-18T12:36:51;88949.81;;;19.31;61.75
8047;BME280;67150;42.516;23.358;2023-09-18T12:39:18;88944.72;;;19.31;61.56
8047;BME280;67150;42.516;23.358;2023-09-18T12:41:48;88942.28;;;19.29;61.50
8047;BME280;67150;42.516;23.358;2023-09-18T12:44:16;88942.28;;;19.29;61.43
8047;BME280;67150;42.516;23.358;2023-09-18T12:46:44;88946.28;;;19.32;61.14
8047;BME280;67150;42.516;23.358;2023-09-18T12:49:16;88949.94;;;19.29;61.19
8047;BME280;67150;42.516;23.358;2023-09-18T12:51:43;88942.16;;;19.31;61.16
8047;BME280;67150;42.516;23.358;2023-09-18T12:54:13;88942.28;;;19.29;60.95
8047;BME280;67150;42.516;23.358;2023-09-18T12:56:41;88941.47;;;19.29;61.11
8047;BME280;67150;42.516;23.358;2023-09-18T12:59:09;88937.97;;;19.30;61.04
8047;BME280;67150;42.516;23.358;2023-09-18T13:01:40;88934.50;;;19.31;60.85
8047;BME280;67150;42.516;23.358;2023-09-18T13:04:11;88935.44;;;19.30;61.19
8047;BME280;67150;42.516;23.358;2023-09-18T13:06:39;88937.03;;;19.31;61.10
8047;BME280;67150;42.516;23.358;2023-09-18T13:09:18;88929.69;;;19.28;61.19
8047;BME280;67150;42.516;23.358;2023-09-18T13:11:53;88921.34;;;19.26;61.14